Portada
METAR-TAF:

METAR-TAF

Aeroports :

Dzaoudzi, Mayotte

latitud: 12-48S, longitud: 045-17E, altitud: 8 m

Observació

L'informe es va fer fa 39 minuts, a les 11:00 UTC
Vent 10 kt del Sud
Temperatura 31°C
Humitat 66%
Pressió 1013 hPa
Visibilitat 10 km o més
Núvols disperses a una alçada de 2000 ft
Núvols disperses a una alçada de 2800 ft

METAR: FMCZ 301100Z AUTO 17010KT 9999 SCT020 SCT028 31/24 Q1013 NOSIG

Hora: 14:39 (11:39 UTC)

Pronòstic

L'informe es va fer fa 6 hores i 39 minuts, a les 05:00 UTC
Pronòstic vàlid del 30 a les 06 UTC al 31 a les 06 UTC
Vent 12 kt del Sud
Visibilitat 10 km o més
Núvols disperses a una alçada de 2200 ft

TAF: FMCZ 300500Z 3006/3106 18012KT 9999 SCT022

Observacions i pronòstics meteorològics de més de 4000 aeroports (METAR i TAF).

Les estacions disponibles són els punts grocs i vermells al mapa.

Posi el ratolí al punt desitjat per veure el nom de l'estació.

Feu clic per veure les observacions i els pronòstics meteorològics.

Per canviar el mapa: feu clic els botons verds amb una creu de color negre per apropar; al botó verd amb un guió per allunyar la imatge; o en les fletxes verdes per a mapes adjacents.


METAR-TAF: